Startpagina
METAR-TAF:

METAR-TAF

Vliegvelden :

Flughafen Engadin

Sankt Moritz, Zwitserland

breedte: 46-32-03N, lengte: 9-53-03E, hoogte: 1707 m

Actueel weer

Dit bericht is 40 minuten geleden gemaakt, om 21:20 UTC
Wind 4 kt uit het zuidzuidwesten, variërend tussen het zuiden en het westzuidwesten
Temperatuur 15°C
Vochtigheid 94%
Druk 1028 hPa
Zicht: 9000 m

METAR: LSZS 232120Z AUTO 20004KT 180V240 9000 NCD 15/14 Q1028

Tijdstip: 00:00 (22:00 UTC)

Verwachting

Dit bericht is 7 uur en het 35 minuten geleden gemaakt, om 14:25 UTC
Verwachting geldig van 23 om 15 UTC tot 23 om 24 UTC
Wind 15 kt uit het zuidwesten
Zicht 10 km of meer
geen wolken onder 1500 m en geen cumulonimbus
Kans 40% :
Tijdelijke
van 23 om 15 UTC tot 23 om 24 UTC
Zicht 10 km of meer
Weinig wolken op 8000 ft
Wijzigt naar
van 23 om 17 UTC tot 23 om 20 UTC
Wind 3 kt uit variabele richting

TAF: LSZS 231425Z 2315/2324 22015KT CAVOK TX26/2315Z PROB40 TEMPO 2315/2324 9999 FEW080 BECMG 2317/2320 VRB03KT

Waarnemingen en weersverwachtingen van meer dan 4000 vliegvelden (METAR en TAF).

De beschikbare stations zijn de gele en rode punten op de kaart.

Ga met uw muis naar het station om de naam te zien.

Klik dan om waarnemingen en weersverwachtingen te zien.

kaart wijzigen: klik op de groene knoppen met een zwart kruis om in te zoomen, op de groene knop met een streepje om uit te zoomen of op de groene pijlen voor aangrenzende kaarten.


METAR-TAF: